Aviation Digital Data Service (ADDS)

Output produced by METARs form (1522 UTC 04 August 2021)
found at http://www.aviationweather.gov/metar/data/
 
METAR text: KAMW 041453Z AUTO 20004KT 10SM CLR 23/16 A3015 RMK AO2 SLP203 T02280156 50002
Conditions at: KAMW (AMES , IA, US) observed 1453 UTC 04 August 2021
Temperature: 22.8°C (73°F)
Dewpoint: 15.6°C (60°F) [RH = 64%]
Pressure (altimeter): 30.15 inches Hg (1021.1 mb)
[Sea-level pressure: 1020.3 mb]
Winds: from the SSW (200 degrees) at 5 MPH (4 knots; 2.1 m/s)
Visibility: 10 or more miles (16+ km)
Ceiling: at least 12,000 feet AGL
Clouds: sky clear below 12,000 feet AGL
Weather: automated observation with no human augmentation;
there may or may not be significant weather present at this time